createdAt,value
2019-03-28T00:00:30.236Z,43.48
2019-03-28T00:03:00.954Z,43.68
2019-03-28T00:05:33.102Z,37.23
2019-03-28T00:08:03.431Z,40.55
2019-03-28T00:10:35.220Z,37.60
2019-03-28T00:13:07.330Z,30.97
2019-03-28T00:15:38.790Z,38.67
2019-03-28T00:18:11.703Z,38.60
2019-03-28T00:20:42.406Z,33.70
2019-03-28T00:23:26.858Z,38.90
2019-03-28T00:25:58.372Z,35.58
2019-03-28T00:28:29.038Z,39.38
2019-03-28T00:31:00.991Z,35.95
2019-03-28T00:33:31.016Z,34.67
2019-03-28T00:36:04.924Z,39.85
2019-03-28T00:38:36.712Z,34.70
2019-03-28T00:41:08.234Z,34.67
2019-03-28T00:43:40.196Z,48.05
2019-03-28T00:46:11.441Z,45.30
2019-03-28T00:48:42.380Z,42.15
2019-03-28T00:51:14.330Z,40.58
2019-03-28T00:53:44.663Z,41.77
2019-03-28T00:56:17.133Z,39.42
2019-03-28T00:58:48.523Z,34.35
2019-03-28T01:01:18.800Z,36.20
2019-03-28T01:03:49.840Z,34.70
2019-03-28T01:06:21.994Z,37.30
2019-03-28T01:08:52.637Z,36.03
2019-03-28T01:11:24.455Z,31.10
2019-03-28T01:13:56.972Z,36.42
2019-03-28T01:16:29.855Z,34.53
2019-03-28T01:19:02.122Z,29.37
2019-03-28T01:21:33.468Z,36.20
2019-03-28T01:24:04.099Z,29.70
2019-03-28T01:26:35.752Z,33.10
2019-03-28T01:29:06.250Z,29.60
2019-03-28T01:31:37.450Z,30.62
2019-03-28T01:34:10.715Z,30.12
2019-03-28T01:36:42.813Z,25.83
2019-03-28T01:39:15.177Z,29.25
2019-03-28T01:41:46.766Z,31.83
2019-03-28T01:44:18.558Z,38.90
2019-03-28T01:46:50.825Z,40.00
2019-03-28T01:51:53.655Z,44.95
2019-03-28T01:54:24.358Z,46.85
2019-03-28T01:56:56.116Z,44.70
2019-03-28T01:59:27.153Z,36.85
2019-03-28T02:02:00.180Z,30.90
2019-03-28T02:04:30.552Z,31.37
2019-03-28T02:07:02.014Z,32.13
2019-03-28T02:09:34.488Z,30.85
2019-03-28T02:12:05.891Z,27.37
2019-03-28T02:14:39.635Z,31.45
2019-03-28T02:17:10.989Z,32.70
2019-03-28T02:19:42.535Z,32.08
2019-03-28T02:22:15.830Z,36.63
2019-03-28T02:24:50.452Z,43.35
2019-03-28T02:27:24.140Z,37.98
2019-03-28T02:29:54.486Z,48.23
2019-03-28T02:32:26.956Z,41.60
2019-03-28T02:34:57.381Z,33.67
2019-03-28T02:37:28.519Z,32.33
2019-03-28T02:39:59.434Z,32.28
2019-03-28T02:42:30.905Z,30.68
2019-03-28T02:45:04.082Z,32.28
2019-03-28T02:47:36.771Z,27.42
2019-03-28T02:50:09.352Z,29.20
2019-03-28T02:52:40.904Z,32.48
2019-03-28T02:55:13.783Z,31.02
2019-03-28T02:57:46.359Z,32.05
2019-03-28T03:00:17.015Z,27.07
2019-03-28T03:02:47.723Z,35.00
2019-03-28T03:05:20.273Z,33.70
2019-03-28T03:07:52.344Z,34.88
2019-03-28T03:10:23.091Z,34.70
2019-03-28T03:12:54.014Z,26.17
2019-03-28T03:15:24.970Z,27.82
2019-03-28T03:17:55.902Z,29.00
2019-03-28T03:20:27.422Z,25.20
2019-03-28T03:22:59.310Z,22.07
2019-03-28T03:25:30.866Z,28.38
2019-03-28T03:28:02.735Z,21.65
2019-03-28T03:30:34.289Z,25.62
2019-03-28T03:33:05.696Z,25.77
2019-03-28T03:35:37.278Z,25.90
2019-03-28T03:38:09.374Z,20.65
2019-03-28T03:40:39.763Z,21.70
2019-03-28T03:43:13.879Z,21.68
2019-03-28T03:45:47.399Z,23.05
2019-03-28T03:48:17.492Z,21.55
2019-03-28T03:50:48.776Z,20.60
2019-03-28T03:53:21.208Z,20.02
2019-03-28T03:55:52.058Z,23.20
2019-03-28T03:58:25.845Z,20.72
2019-03-28T04:00:57.818Z,20.45
2019-03-28T04:03:29.803Z,20.15
2019-03-28T04:06:01.039Z,20.60
2019-03-28T04:08:32.076Z,19.82
2019-03-28T04:11:03.218Z,21.10
2019-03-28T04:13:35.293Z,23.52
2019-03-28T04:16:06.678Z,22.50
2019-03-28T04:18:38.291Z,17.52
2019-03-28T04:21:09.934Z,19.50
2019-03-28T04:23:40.873Z,20.92
2019-03-28T04:26:12.835Z,15.85
2019-03-28T04:28:44.077Z,16.60
2019-03-28T04:31:14.403Z,16.12
2019-03-28T04:33:47.085Z,14.20
2019-03-28T04:36:18.325Z,13.53
2019-03-28T04:38:49.057Z,16.85
2019-03-28T04:41:22.254Z,17.02
2019-03-28T04:43:56.974Z,14.90
2019-03-28T04:46:27.406Z,16.17
2019-03-28T04:48:58.851Z,12.25
2019-03-28T04:51:29.775Z,15.60
2019-03-28T04:56:35.653Z,17.92
2019-03-28T04:59:06.495Z,14.63
2019-03-28T05:01:38.037Z,15.65
2019-03-28T05:04:08.877Z,15.08
2019-03-28T05:06:40.011Z,14.70
2019-03-28T05:09:12.381Z,14.83
2019-03-28T05:11:43.728Z,13.38
2019-03-28T05:14:14.056Z,11.35
2019-03-28T05:16:47.274Z,12.85
2019-03-28T05:19:21.150Z,13.83
2019-03-28T05:21:53.727Z,13.13
2019-03-28T05:24:26.527Z,13.95
2019-03-28T05:26:56.826Z,14.75
2019-03-28T05:29:27.054Z,13.70
2019-03-28T05:31:57.682Z,13.05
2019-03-28T05:34:31.793Z,14.43
2019-03-28T05:37:06.826Z,10.43
2019-03-28T05:39:37.575Z,15.65
2019-03-28T05:42:10.338Z,14.53
2019-03-28T05:44:41.637Z,15.72
2019-03-28T05:47:16.410Z,14.03
2019-03-28T05:49:47.095Z,15.05
2019-03-28T05:52:17.978Z,17.85
2019-03-28T05:54:51.454Z,13.40
2019-03-28T05:57:24.873Z,17.27
2019-03-28T05:59:56.715Z,16.30
2019-03-28T06:02:27.927Z,14.90
2019-03-28T06:04:58.483Z,16.12
2019-03-28T06:07:29.825Z,19.70
2019-03-28T06:10:01.175Z,11.80
2019-03-28T06:12:32.130Z,14.18
2019-03-28T06:15:04.279Z,12.50
2019-03-28T06:17:34.760Z,11.45
2019-03-28T06:20:08.920Z,14.38
2019-03-28T06:25:09.876Z,11.18
2019-03-28T06:27:40.604Z,7.33
2019-03-28T06:30:12.051Z,11.78
2019-03-28T06:32:43.671Z,10.65
2019-03-28T06:35:14.215Z,11.38
2019-03-28T06:37:51.375Z,11.10
2019-03-28T06:40:21.736Z,11.85
2019-03-28T06:42:52.805Z,8.78
2019-03-28T06:45:25.035Z,12.55
2019-03-28T06:47:55.478Z,18.42
2019-03-28T06:50:26.102Z,11.68
2019-03-28T06:52:58.273Z,10.68
2019-03-28T06:55:31.059Z,8.77
2019-03-28T06:58:02.193Z,18.23
2019-03-28T07:00:32.617Z,8.33
2019-03-28T07:03:04.278Z,6.83
2019-03-28T07:05:34.710Z,13.93
2019-03-28T07:08:05.939Z,9.38
2019-03-28T07:10:36.684Z,7.00
2019-03-28T07:13:10.755Z,9.93
2019-03-28T07:15:40.966Z,10.68
2019-03-28T07:18:13.576Z,8.88
2019-03-28T07:20:44.109Z,10.10
2019-03-28T07:23:15.353Z,7.70
2019-03-28T07:25:46.596Z,7.33
2019-03-28T07:28:18.810Z,9.40
2019-03-28T07:30:49.085Z,10.90
2019-03-28T07:33:22.399Z,9.63
2019-03-28T07:35:54.843Z,10.58
2019-03-28T07:38:26.302Z,13.40
2019-03-28T07:40:57.139Z,11.75
2019-03-28T07:43:28.185Z,8.83
2019-03-28T07:45:58.497Z,11.75
2019-03-28T07:48:29.741Z,15.78
2019-03-28T07:51:00.373Z,15.32
2019-03-28T07:53:31.714Z,13.13
2019-03-28T07:56:02.558Z,13.28
2019-03-28T07:58:36.050Z,10.90
2019-03-28T08:01:07.407Z,12.58
2019-03-28T08:03:39.964Z,10.15
2019-03-28T08:06:12.818Z,12.53
2019-03-28T08:08:44.755Z,20.68
2019-03-28T08:11:20.250Z,9.33
2019-03-28T08:13:51.916Z,14.00
2019-03-28T08:16:22.443Z,14.10
2019-03-28T08:18:55.004Z,9.58
2019-03-28T08:21:25.446Z,16.17
2019-03-28T08:23:58.024Z,15.83
2019-03-28T08:26:30.289Z,14.93
2019-03-28T08:29:02.356Z,18.55
2019-03-28T08:31:33.597Z,14.25
2019-03-28T08:34:03.817Z,12.25
2019-03-28T08:36:35.127Z,13.55
2019-03-28T08:39:07.230Z,12.25
2019-03-28T08:41:37.772Z,11.68
2019-03-28T08:44:10.695Z,14.95
2019-03-28T08:46:41.984Z,18.05
2019-03-28T08:49:13.655Z,15.75
2019-03-28T08:51:46.568Z,17.75
2019-03-28T08:54:18.494Z,12.78
2019-03-28T08:56:49.921Z,12.43
2019-03-28T08:59:20.493Z,15.43
2019-03-28T09:01:52.894Z,13.50
2019-03-28T09:04:24.697Z,18.05
2019-03-28T09:06:57.098Z,14.50
2019-03-28T09:12:00.320Z,13.45
2019-03-28T09:14:32.238Z,11.85
2019-03-28T09:17:04.901Z,11.35
2019-03-28T09:19:38.730Z,9.58
2019-03-28T09:22:07.507Z,10.28
2019-03-28T09:24:38.857Z,10.78
2019-03-28T09:27:09.173Z,11.05
2019-03-28T09:29:41.438Z,12.53
2019-03-28T09:32:12.976Z,5.60
2019-03-28T09:34:44.240Z,12.20
2019-03-28T09:37:15.295Z,10.30
2019-03-28T09:39:47.465Z,9.80
2019-03-28T09:42:18.172Z,10.32
2019-03-28T09:44:49.215Z,12.47
2019-03-28T09:47:20.051Z,11.10
2019-03-28T09:49:53.644Z,12.65
2019-03-28T09:52:24.794Z,10.18
2019-03-28T09:54:55.743Z,11.15
2019-03-28T09:57:27.438Z,15.38
2019-03-28T09:59:58.215Z,13.85
2019-03-28T10:02:30.178Z,12.18
2019-03-28T10:05:02.344Z,13.03
2019-03-28T10:07:33.899Z,15.68
2019-03-28T10:10:05.500Z,12.10
2019-03-28T10:12:36.591Z,15.48
2019-03-28T10:15:07.325Z,12.35
2019-03-28T10:17:37.951Z,14.47
2019-03-28T10:20:09.003Z,20.25
2019-03-28T10:22:39.726Z,15.68
2019-03-28T10:25:12.550Z,14.23
2019-03-28T10:27:43.148Z,11.22
2019-03-28T10:30:14.997Z,12.30
2019-03-28T10:32:46.342Z,10.80
2019-03-28T10:35:27.317Z,8.75
2019-03-28T10:37:58.278Z,7.78
2019-03-28T10:40:28.777Z,12.55
2019-03-28T10:42:59.305Z,11.70
2019-03-28T10:45:33.449Z,7.10
2019-03-28T10:48:02.802Z,9.13
2019-03-28T10:50:41.634Z,9.65
2019-03-28T10:53:07.359Z,9.85
2019-03-28T10:55:38.294Z,9.23
2019-03-28T10:58:18.294Z,10.88
2019-03-28T11:00:43.161Z,14.53
2019-03-28T11:03:13.475Z,13.15
2019-03-28T11:05:44.605Z,10.35
2019-03-28T11:08:15.233Z,8.95
2019-03-28T11:10:45.724Z,7.95
2019-03-28T11:13:17.732Z,13.88
2019-03-28T11:15:49.378Z,9.88
2019-03-28T11:18:19.963Z,6.50
2019-03-28T11:20:50.636Z,7.80
2019-03-28T11:23:21.586Z,10.58
2019-03-28T11:25:57.193Z,7.90
2019-03-28T11:28:26.761Z,7.53
2019-03-28T11:30:57.797Z,7.12
2019-03-28T11:33:30.615Z,9.23
2019-03-28T11:36:02.731Z,7.37
2019-03-28T11:38:33.546Z,14.23
2019-03-28T11:41:04.897Z,12.93
2019-03-28T11:43:37.169Z,8.45
2019-03-28T11:46:08.012Z,8.08
2019-03-28T11:48:44.973Z,7.78
2019-03-28T11:51:17.352Z,13.08
2019-03-28T11:53:49.002Z,16.82
2019-03-28T11:56:20.150Z,12.05
2019-03-28T11:58:51.373Z,21.52
2019-03-28T12:01:22.122Z,9.55
2019-03-28T12:03:52.761Z,11.75
2019-03-28T12:06:24.102Z,7.47
2019-03-28T12:08:56.010Z,10.65
2019-03-28T12:11:27.598Z,9.20
2019-03-28T12:13:59.987Z,13.80
2019-03-28T12:16:30.712Z,8.03
2019-03-28T12:19:01.256Z,6.00
2019-03-28T12:21:34.031Z,12.13
2019-03-28T12:24:05.578Z,5.83
2019-03-28T12:26:35.897Z,7.35
2019-03-28T12:29:09.713Z,10.78
2019-03-28T12:31:43.825Z,5.83
2019-03-28T12:34:16.859Z,6.28
2019-03-28T12:36:48.253Z,7.25
2019-03-28T12:39:20.923Z,8.48
2019-03-28T12:41:52.843Z,9.35
2019-03-28T12:44:25.870Z,30.92
2019-03-28T12:46:56.091Z,11.33
2019-03-28T12:49:28.155Z,8.90
2019-03-28T12:52:01.305Z,9.03
2019-03-28T12:54:34.063Z,10.00
2019-03-28T12:57:05.596Z,9.40
2019-03-28T12:59:36.980Z,8.58
2019-03-28T13:02:08.988Z,10.15
2019-03-28T13:04:39.736Z,7.10
2019-03-28T13:07:10.778Z,6.12
2019-03-28T13:09:41.392Z,5.60
2019-03-28T13:12:11.935Z,8.60
2019-03-28T13:14:44.700Z,10.30
2019-03-28T13:17:19.177Z,19.45
2019-03-28T13:19:50.575Z,8.43
2019-03-28T13:22:22.014Z,7.78
2019-03-28T13:24:52.543Z,8.20
2019-03-28T13:27:27.827Z,11.03
2019-03-28T13:30:00.572Z,10.63
2019-03-28T13:32:41.030Z,9.48
2019-03-28T13:35:04.177Z,6.50
2019-03-28T13:37:34.504Z,11.48
2019-03-28T13:40:07.587Z,9.23
2019-03-28T13:42:38.767Z,12.93
2019-03-28T13:45:11.773Z,8.05
2019-03-28T13:47:43.422Z,9.85
2019-03-28T13:50:15.225Z,12.05
2019-03-28T13:52:46.474Z,8.28
2019-03-28T13:55:17.062Z,12.43
2019-03-28T13:57:47.928Z,18.50
2019-03-28T14:00:24.075Z,12.33
2019-03-28T14:02:58.955Z,25.80
2019-03-28T14:05:29.459Z,23.20
2019-03-28T14:11:19.971Z,16.95
2019-03-28T14:13:52.554Z,19.02
2019-03-28T14:16:23.703Z,21.97
2019-03-28T14:18:54.427Z,19.70
2019-03-28T14:21:25.340Z,23.50
2019-03-28T14:23:56.501Z,16.10
2019-03-28T14:26:27.143Z,14.98
2019-03-28T14:29:00.523Z,18.98
2019-03-28T14:31:31.040Z,14.75
2019-03-28T14:34:03.223Z,12.33
2019-03-28T14:36:35.179Z,12.95
2019-03-28T14:39:07.448Z,13.05
2019-03-28T14:41:38.691Z,16.25
2019-03-28T14:44:09.237Z,14.58
2019-03-28T14:46:39.858Z,17.00
2019-03-28T14:49:11.440Z,13.58
2019-03-28T14:51:43.466Z,17.92
2019-03-28T14:54:15.232Z,13.93
2019-03-28T14:56:45.861Z,20.15
2019-03-28T14:59:31.997Z,13.95
2019-03-28T15:01:51.260Z,9.60
2019-03-28T15:04:21.944Z,8.48
2019-03-28T15:06:54.415Z,8.38
2019-03-28T15:09:26.515Z,9.20
2019-03-28T15:11:58.765Z,8.25
2019-03-28T15:14:50.576Z,11.20
2019-03-28T15:17:21.501Z,14.13
2019-03-28T15:19:53.122Z,11.38
2019-03-28T15:22:26.321Z,16.25
2019-03-28T15:24:59.285Z,11.43
2019-03-28T15:27:29.558Z,8.23
2019-03-28T15:30:00.514Z,12.30
2019-03-28T15:32:34.608Z,9.28
2019-03-28T15:35:06.853Z,12.07
2019-03-28T15:37:37.826Z,12.78
2019-03-28T15:40:08.651Z,13.38
2019-03-28T15:42:39.771Z,7.85
2019-03-28T15:45:12.779Z,7.90
2019-03-28T15:47:43.713Z,10.97
2019-03-28T15:50:15.062Z,14.80
2019-03-28T15:52:45.954Z,8.60
2019-03-28T15:55:17.144Z,15.58
2019-03-28T15:57:49.716Z,11.68
2019-03-28T16:00:20.965Z,16.27
2019-03-28T16:02:52.095Z,21.10
2019-03-28T16:05:23.053Z,13.10
2019-03-28T16:07:53.890Z,16.45
2019-03-28T16:10:27.988Z,15.75
2019-03-28T16:12:59.439Z,22.70
2019-03-28T16:15:29.982Z,14.15
2019-03-28T16:18:00.525Z,17.00
2019-03-28T16:20:32.764Z,9.23
2019-03-28T16:23:03.892Z,21.50
2019-03-28T16:25:37.296Z,16.40
2019-03-28T16:28:09.055Z,22.95
2019-03-28T16:30:39.592Z,18.17
2019-03-28T16:33:10.114Z,24.50
2019-03-28T16:35:41.363Z,14.68
2019-03-28T16:38:11.416Z,29.57
2019-03-28T16:40:42.634Z,41.60
2019-03-28T16:43:16.190Z,38.50
2019-03-28T16:45:47.870Z,49.63
2019-03-28T16:48:20.562Z,40.50
2019-03-28T16:50:51.894Z,47.13
2019-03-28T16:53:23.663Z,50.33
2019-03-28T16:55:54.600Z,46.15
2019-03-28T16:58:26.230Z,49.90
2019-03-28T17:00:57.082Z,51.95
2019-03-28T17:03:28.304Z,42.85
2019-03-28T17:05:59.055Z,34.53
2019-03-28T17:08:30.052Z,35.30
2019-03-28T17:11:01.814Z,35.48
2019-03-28T17:13:34.315Z,38.17
2019-03-28T17:16:07.041Z,42.70
2019-03-28T17:18:38.513Z,43.02
2019-03-28T17:21:09.018Z,49.40
2019-03-28T17:23:41.186Z,46.75
2019-03-28T17:26:11.571Z,43.00
2019-03-28T17:28:42.406Z,38.85
2019-03-28T17:31:15.349Z,40.00
2019-03-28T17:33:47.679Z,49.77
2019-03-28T17:36:19.312Z,51.92
2019-03-28T17:38:52.408Z,51.73
2019-03-28T17:41:23.341Z,55.03
2019-03-28T17:43:55.200Z,59.80
2019-03-28T17:46:25.726Z,49.23
2019-03-28T17:48:57.694Z,45.40
2019-03-28T17:51:31.697Z,28.62
2019-03-28T17:54:02.841Z,43.00
2019-03-28T17:56:33.573Z,37.45
2019-03-28T18:01:37.383Z,42.38
2019-03-28T18:04:22.184Z,34.15
2019-03-28T18:06:43.216Z,37.15
2019-03-28T18:09:14.499Z,32.75
2019-03-28T18:11:47.805Z,40.08
2019-03-28T18:14:19.144Z,32.03
2019-03-28T18:16:49.674Z,27.55
2019-03-28T18:19:21.933Z,35.58
2019-03-28T18:22:03.233Z,60.65
2019-03-28T18:24:30.279Z,31.15
2019-03-28T18:26:59.568Z,27.00
2019-03-28T18:29:31.146Z,33.83
2019-03-28T18:32:01.743Z,40.20
2019-03-28T18:34:32.367Z,48.17
2019-03-28T18:37:04.101Z,49.10
2019-03-28T18:39:35.802Z,38.73
2019-03-28T18:42:07.454Z,33.92
2019-03-28T18:44:41.674Z,40.58
2019-03-28T18:47:12.284Z,37.33
2019-03-28T18:49:42.608Z,31.35
2019-03-28T18:52:18.446Z,23.90
2019-03-28T18:54:50.874Z,26.62
2019-03-28T18:57:22.177Z,37.40
2019-03-28T18:59:54.654Z,33.15
2019-03-28T19:02:26.513Z,29.87
2019-03-28T19:05:00.006Z,22.02
2019-03-28T19:07:31.558Z,32.48
2019-03-28T19:10:03.621Z,35.48
2019-03-28T19:12:34.665Z,29.23
2019-03-28T19:15:06.796Z,60.23
2019-03-28T19:17:37.861Z,40.43
2019-03-28T19:20:10.235Z,27.55
2019-03-28T19:22:41.887Z,36.05
2019-03-28T19:25:12.450Z,33.55
2019-03-28T19:27:44.816Z,39.78
2019-03-28T19:30:16.938Z,52.90
2019-03-28T19:32:48.778Z,50.50
2019-03-28T19:35:32.402Z,59.38
2019-03-28T19:37:53.974Z,53.08
2019-03-28T19:40:27.361Z,53.30
2019-03-28T19:42:58.004Z,66.72
2019-03-28T19:45:35.811Z,69.07
2019-03-28T19:48:06.524Z,78.30
2019-03-28T19:50:38.698Z,60.50
2019-03-28T19:53:11.739Z,49.75
2019-03-28T19:55:43.628Z,54.50
2019-03-28T19:58:19.276Z,53.45
2019-03-28T20:00:50.629Z,57.10
2019-03-28T20:03:23.354Z,77.65
2019-03-28T20:05:56.187Z,57.83
2019-03-28T20:08:26.545Z,65.30
2019-03-28T20:10:59.098Z,68.85
2019-03-28T20:13:31.008Z,49.83
2019-03-28T20:16:02.090Z,53.63
2019-03-28T20:18:33.372Z,55.23
2019-03-28T20:21:04.613Z,45.92
2019-03-28T20:23:36.440Z,40.10
2019-03-28T20:26:07.381Z,46.90
2019-03-28T20:28:38.426Z,38.83
2019-03-28T20:31:09.851Z,44.83
2019-03-28T20:33:42.161Z,39.45
2019-03-28T20:36:36.223Z,38.80
2019-03-28T20:38:58.053Z,37.88
2019-03-28T20:41:23.304Z,48.30
2019-03-28T20:43:54.685Z,44.58
2019-03-28T20:46:28.998Z,31.37
2019-03-28T20:48:59.353Z,45.28
2019-03-28T20:51:30.776Z,43.30
2019-03-28T20:54:03.711Z,36.83
2019-03-28T20:56:34.701Z,54.33
2019-03-28T20:59:07.026Z,55.52
2019-03-28T21:01:42.382Z,43.60
2019-03-28T21:04:11.097Z,45.55
2019-03-28T21:06:42.508Z,42.80
2019-03-28T21:09:13.481Z,43.70
2019-03-28T21:11:48.908Z,53.65
2019-03-28T21:16:49.569Z,61.75
2019-03-28T21:19:20.716Z,53.30
2019-03-28T21:21:55.214Z,52.83
2019-03-28T21:24:27.805Z,43.70
2019-03-28T21:26:58.848Z,45.70
2019-03-28T21:29:29.381Z,38.13
2019-03-28T21:32:00.008Z,38.28
2019-03-28T21:34:32.889Z,43.80
2019-03-28T21:37:08.739Z,53.03
2019-03-28T21:39:40.243Z,51.83
2019-03-28T21:42:12.391Z,48.48
2019-03-28T21:44:42.780Z,43.35
2019-03-28T21:47:15.905Z,42.67
2019-03-28T21:49:47.453Z,43.70
2019-03-28T21:52:18.052Z,43.02
2019-03-28T21:54:51.041Z,39.65
2019-03-28T21:57:25.222Z,43.42
2019-03-28T21:59:56.544Z,35.15
2019-03-28T22:02:28.367Z,55.48
2019-03-28T22:05:00.990Z,58.48
2019-03-28T22:07:32.483Z,58.33
2019-03-28T22:10:04.240Z,55.90
2019-03-28T22:12:34.773Z,56.25
2019-03-28T22:15:07.654Z,54.58
2019-03-28T22:17:38.590Z,58.95
2019-03-28T22:20:08.807Z,78.75
2019-03-28T22:22:43.325Z,54.05
2019-03-28T22:25:13.343Z,55.95
2019-03-28T22:27:47.491Z,56.70
2019-03-28T22:30:19.112Z,54.25
2019-03-28T22:32:52.610Z,52.98
2019-03-28T22:35:25.287Z,53.48
2019-03-28T22:37:56.528Z,60.98
2019-03-28T22:40:27.975Z,55.95
2019-03-28T22:42:59.835Z,55.20
2019-03-28T22:45:30.873Z,62.08
2019-03-28T22:48:10.659Z,62.98
2019-03-28T22:50:33.669Z,60.90
2019-03-28T22:53:05.120Z,59.83
2019-03-28T22:55:35.869Z,71.07
2019-03-28T22:58:08.088Z,57.38
2019-03-28T23:00:46.432Z,61.85
2019-03-28T23:03:21.154Z,62.15
2019-03-28T23:05:52.449Z,62.20
2019-03-28T23:08:23.140Z,64.17
2019-03-28T23:10:54.975Z,66.80
2019-03-28T23:13:28.591Z,64.95
2019-03-28T23:15:59.062Z,69.20
2019-03-28T23:18:31.900Z,76.20
2019-03-28T23:21:03.018Z,72.67
2019-03-28T23:23:35.024Z,84.90
2019-03-28T23:26:06.044Z,83.07
2019-03-28T23:28:37.757Z,92.53
2019-03-28T23:31:08.568Z,84.37
2019-03-28T23:33:39.779Z,81.35
2019-03-28T23:36:10.510Z,73.47
2019-03-28T23:38:41.248Z,74.95
2019-03-28T23:41:13.166Z,59.67
2019-03-28T23:43:43.539Z,61.73
2019-03-28T23:46:14.907Z,58.98
2019-03-28T23:48:46.018Z,57.30
2019-03-28T23:51:17.159Z,53.58
2019-03-28T23:53:47.993Z,55.75
2019-03-28T23:56:20.271Z,64.35
2019-03-28T23:58:51.497Z,62.53
